sensor_id;sensor_type;location;lat;lon;timestamp;P1;durP1;ratioP1;P2;durP2;ratioP2
19235;SDS011;9752;54.270;12.470;2023-01-26T00:04:08;84.87;;;35.97;;
19235;SDS011;9752;54.270;12.470;2023-01-26T00:09:11;77.70;;;35.90;;
19235;SDS011;9752;54.270;12.470;2023-01-26T00:14:15;80.47;;;35.83;;
19235;SDS011;9752;54.270;12.470;2023-01-26T00:19:18;95.80;;;41.47;;
19235;SDS011;9752;54.270;12.470;2023-01-26T00:24:20;78.87;;;36.30;;
19235;SDS011;9752;54.270;12.470;2023-01-26T00:29:22;100.17;;;43.20;;
19235;SDS011;9752;54.270;12.470;2023-01-26T00:34:25;106.20;;;44.20;;
19235;SDS011;9752;54.270;12.470;2023-01-26T00:39:27;85.93;;;36.90;;
19235;SDS011;9752;54.270;12.470;2023-01-26T00:44:28;97.83;;;40.17;;
19235;SDS011;9752;54.270;12.470;2023-01-26T00:49:31;96.20;;;38.93;;
19235;SDS011;9752;54.270;12.470;2023-01-26T00:54:33;109.70;;;42.43;;
19235;SDS011;9752;54.270;12.470;2023-01-26T00:59:35;93.43;;;37.60;;
19235;SDS011;9752;54.270;12.470;2023-01-26T01:04:38;79.57;;;31.70;;
19235;SDS011;9752;54.270;12.470;2023-01-26T01:09:39;89.03;;;36.60;;
19235;SDS011;9752;54.270;12.470;2023-01-26T01:14:42;109.27;;;39.90;;
19235;SDS011;9752;54.270;12.470;2023-01-26T01:19:45;74.30;;;32.27;;
19235;SDS011;9752;54.270;12.470;2023-01-26T01:24:47;75.27;;;32.70;;
19235;SDS011;9752;54.270;12.470;2023-01-26T01:29:48;90.93;;;33.63;;
19235;SDS011;9752;54.270;12.470;2023-01-26T01:34:52;71.70;;;28.83;;
19235;SDS011;9752;54.270;12.470;2023-01-26T01:39:55;93.33;;;36.50;;
19235;SDS011;9752;54.270;12.470;2023-01-26T01:50:35;59.77;;;26.73;;
19235;SDS011;9752;54.270;12.470;2023-01-26T01:55:40;64.90;;;27.73;;
19235;SDS011;9752;54.270;12.470;2023-01-26T02:00:42;69.53;;;27.33;;
19235;SDS011;9752;54.270;12.470;2023-01-26T02:05:48;59.37;;;26.37;;
19235;SDS011;9752;54.270;12.470;2023-01-26T02:10:57;61.60;;;25.90;;
19235;SDS011;9752;54.270;12.470;2023-01-26T02:16:02;62.57;;;26.60;;
19235;SDS011;9752;54.270;12.470;2023-01-26T02:21:06;62.30;;;24.63;;
19235;SDS011;9752;54.270;12.470;2023-01-26T02:26:13;48.80;;;21.13;;
19235;SDS011;9752;54.270;12.470;2023-01-26T02:31:16;49.83;;;21.70;;
19235;SDS011;9752;54.270;12.470;2023-01-26T02:36:21;66.33;;;24.17;;
19235;SDS011;9752;54.270;12.470;2023-01-26T02:41:26;74.77;;;26.10;;
19235;SDS011;9752;54.270;12.470;2023-01-26T02:46:45;64.27;;;26.23;;
19235;SDS011;9752;54.270;12.470;2023-01-26T02:51:50;66.10;;;26.13;;
19235;SDS011;9752;54.270;12.470;2023-01-26T02:56:53;72.53;;;26.17;;
19235;SDS011;9752;54.270;12.470;2023-01-26T03:01:55;69.13;;;28.07;;
19235;SDS011;9752;54.270;12.470;2023-01-26T03:06:58;72.43;;;27.60;;
19235;SDS011;9752;54.270;12.470;2023-01-26T03:12:01;72.03;;;28.77;;
19235;SDS011;9752;54.270;12.470;2023-01-26T03:17:04;60.27;;;26.23;;
19235;SDS011;9752;54.270;12.470;2023-01-26T03:22:07;67.17;;;26.73;;
19235;SDS011;9752;54.270;12.470;2023-01-26T03:27:29;44.50;;;19.67;;
19235;SDS011;9752;54.270;12.470;2023-01-26T03:32:36;44.57;;;19.53;;
19235;SDS011;9752;54.270;12.470;2023-01-26T03:37:42;46.07;;;19.27;;
19235;SDS011;9752;54.270;12.470;2023-01-26T03:42:57;45.40;;;19.83;;
19235;SDS011;9752;54.270;12.470;2023-01-26T03:48:17;47.47;;;20.83;;
19235;SDS011;9752;54.270;12.470;2023-01-26T03:53:38;46.37;;;21.13;;
19235;SDS011;9752;54.270;12.470;2023-01-26T03:58:59;54.33;;;18.90;;
19235;SDS011;9752;54.270;12.470;2023-01-26T04:04:07;54.33;;;22.53;;
19235;SDS011;9752;54.270;12.470;2023-01-26T04:09:29;46.50;;;20.17;;
19235;SDS011;9752;54.270;12.470;2023-01-26T04:14:33;49.97;;;20.40;;
19235;SDS011;9752;54.270;12.470;2023-01-26T04:19:57;39.67;;;17.57;;
19235;SDS011;9752;54.270;12.470;2023-01-26T04:25:18;42.87;;;19.63;;
19235;SDS011;9752;54.270;12.470;2023-01-26T04:30:23;50.70;;;20.40;;
19235;SDS011;9752;54.270;12.470;2023-01-26T04:35:25;63.80;;;23.17;;
19235;SDS011;9752;54.270;12.470;2023-01-26T04:40:27;46.03;;;20.73;;
19235;SDS011;9752;54.270;12.470;2023-01-26T04:45:31;51.47;;;20.00;;
19235;SDS011;9752;54.270;12.470;2023-01-26T04:50:33;46.87;;;19.50;;
19235;SDS011;9752;54.270;12.470;2023-01-26T04:55:35;40.23;;;19.17;;
19235;SDS011;9752;54.270;12.470;2023-01-26T05:00:39;42.30;;;18.97;;
19235;SDS011;9752;54.270;12.470;2023-01-26T05:05:41;42.90;;;19.27;;
19235;SDS011;9752;54.270;12.470;2023-01-26T05:10:42;40.83;;;18.67;;
19235;SDS011;9752;54.270;12.470;2023-01-26T05:16:00;52.77;;;20.27;;
19235;SDS011;9752;54.270;12.470;2023-01-26T05:21:25;39.77;;;17.20;;
19235;SDS011;9752;54.270;12.470;2023-01-26T05:26:27;49.37;;;19.83;;
19235;SDS011;9752;54.270;12.470;2023-01-26T05:31:35;43.30;;;18.17;;
19235;SDS011;9752;54.270;12.470;2023-01-26T05:36:37;55.17;;;21.77;;
19235;SDS011;9752;54.270;12.470;2023-01-26T05:41:39;43.93;;;17.77;;
19235;SDS011;9752;54.270;12.470;2023-01-26T05:47:01;57.40;;;23.90;;
19235;SDS011;9752;54.270;12.470;2023-01-26T05:52:06;43.03;;;18.23;;
19235;SDS011;9752;54.270;12.470;2023-01-26T05:57:08;44.63;;;18.20;;
19235;SDS011;9752;54.270;12.470;2023-01-26T06:02:16;45.17;;;17.60;;
19235;SDS011;9752;54.270;12.470;2023-01-26T06:07:19;51.77;;;20.27;;
19235;SDS011;9752;54.270;12.470;2023-01-26T06:12:29;63.07;;;20.87;;
19235;SDS011;9752;54.270;12.470;2023-01-26T06:17:42;61.93;;;21.00;;
19235;SDS011;9752;54.270;12.470;2023-01-26T06:22:47;59.30;;;21.33;;
19235;SDS011;9752;54.270;12.470;2023-01-26T06:27:49;59.60;;;23.77;;
19235;SDS011;9752;54.270;12.470;2023-01-26T06:33:00;42.00;;;18.93;;
19235;SDS011;9752;54.270;12.470;2023-01-26T06:38:03;43.17;;;19.63;;
19235;SDS011;9752;54.270;12.470;2023-01-26T06:43:06;41.60;;;18.23;;
19235;SDS011;9752;54.270;12.470;2023-01-26T06:48:09;41.87;;;19.07;;
19235;SDS011;9752;54.270;12.470;2023-01-26T06:58:57;43.30;;;20.47;;
19235;SDS011;9752;54.270;12.470;2023-01-26T07:04:13;60.87;;;22.37;;
19235;SDS011;9752;54.270;12.470;2023-01-26T07:09:15;46.27;;;17.60;;
19235;SDS011;9752;54.270;12.470;2023-01-26T07:14:17;49.10;;;20.80;;
19235;SDS011;9752;54.270;12.470;2023-01-26T07:19:20;55.73;;;22.10;;
19235;SDS011;9752;54.270;12.470;2023-01-26T07:24:22;56.33;;;22.37;;
19235;SDS011;9752;54.270;12.470;2023-01-26T07:29:24;39.13;;;17.70;;
19235;SDS011;9752;54.270;12.470;2023-01-26T07:34:27;45.27;;;19.53;;
19235;SDS011;9752;54.270;12.470;2023-01-26T07:39:28;38.23;;;16.33;;
19235;SDS011;9752;54.270;12.470;2023-01-26T07:44:30;37.50;;;17.87;;
19235;SDS011;9752;54.270;12.470;2023-01-26T07:49:33;48.97;;;21.23;;
19235;SDS011;9752;54.270;12.470;2023-01-26T07:54:35;47.30;;;20.00;;
19235;SDS011;9752;54.270;12.470;2023-01-26T07:59:37;45.73;;;18.40;;
19235;SDS011;9752;54.270;12.470;2023-01-26T08:04:40;38.37;;;17.67;;
19235;SDS011;9752;54.270;12.470;2023-01-26T08:09:42;38.97;;;18.07;;
19235;SDS011;9752;54.270;12.470;2023-01-26T08:14:43;43.53;;;18.07;;
19235;SDS011;9752;54.270;12.470;2023-01-26T08:19:47;46.10;;;19.20;;
19235;SDS011;9752;54.270;12.470;2023-01-26T08:24:49;41.20;;;19.37;;
19235;SDS011;9752;54.270;12.470;2023-01-26T08:29:50;52.87;;;21.77;;
19235;SDS011;9752;54.270;12.470;2023-01-26T08:34:53;55.00;;;24.40;;
19235;SDS011;9752;54.270;12.470;2023-01-26T08:39:55;78.03;;;25.57;;
19235;SDS011;9752;54.270;12.470;2023-01-26T08:44:57;64.03;;;23.47;;
19235;SDS011;9752;54.270;12.470;2023-01-26T08:50:00;55.13;;;22.20;;
19235;SDS011;9752;54.270;12.470;2023-01-26T08:55:02;97.43;;;32.70;;
19235;SDS011;9752;54.270;12.470;2023-01-26T09:00:04;61.83;;;24.60;;
19235;SDS011;9752;54.270;12.470;2023-01-26T09:05:08;67.43;;;27.63;;
19235;SDS011;9752;54.270;12.470;2023-01-26T09:10:10;77.83;;;27.33;;
19235;SDS011;9752;54.270;12.470;2023-01-26T09:15:12;95.83;;;32.50;;
19235;SDS011;9752;54.270;12.470;2023-01-26T09:20:16;67.23;;;27.73;;
19235;SDS011;9752;54.270;12.470;2023-01-26T09:25:18;69.40;;;27.53;;
19235;SDS011;9752;54.270;12.470;2023-01-26T09:30:20;80.87;;;29.33;;
19235;SDS011;9752;54.270;12.470;2023-01-26T09:35:25;82.50;;;30.27;;
19235;SDS011;9752;54.270;12.470;2023-01-26T09:40:29;66.80;;;27.87;;
19235;SDS011;9752;54.270;12.470;2023-01-26T09:45:38;77.60;;;28.97;;
19235;SDS011;9752;54.270;12.470;2023-01-26T09:50:50;69.77;;;28.37;;
19235;SDS011;9752;54.270;12.470;2023-01-26T09:55:58;75.90;;;29.50;;
19235;SDS011;9752;54.270;12.470;2023-01-26T10:01:00;92.93;;;32.87;;
19235;SDS011;9752;54.270;12.470;2023-01-26T10:06:07;74.00;;;28.57;;
19235;SDS011;9752;54.270;12.470;2023-01-26T10:11:41;93.97;;;32.93;;
19235;SDS011;9752;54.270;12.470;2023-01-26T10:16:47;75.70;;;30.23;;
19235;SDS011;9752;54.270;12.470;2023-01-26T10:21:53;68.40;;;29.17;;
19235;SDS011;9752;54.270;12.470;2023-01-26T10:26:59;113.97;;;37.33;;
19235;SDS011;9752;54.270;12.470;2023-01-26T10:32:01;83.47;;;31.90;;
19235;SDS011;9752;54.270;12.470;2023-01-26T10:37:11;77.07;;;31.83;;
19235;SDS011;9752;54.270;12.470;2023-01-26T10:42:19;91.40;;;35.27;;
19235;SDS011;9752;54.270;12.470;2023-01-26T10:47:21;74.93;;;28.43;;
19235;SDS011;9752;54.270;12.470;2023-01-26T10:52:25;88.37;;;34.40;;
19235;SDS011;9752;54.270;12.470;2023-01-26T10:57:27;69.70;;;30.07;;
19235;SDS011;9752;54.270;12.470;2023-01-26T11:02:32;103.00;;;33.50;;
19235;SDS011;9752;54.270;12.470;2023-01-26T11:07:37;106.03;;;35.63;;
19235;SDS011;9752;54.270;12.470;2023-01-26T11:12:40;76.37;;;30.07;;
19235;SDS011;9752;54.270;12.470;2023-01-26T11:17:43;96.33;;;35.07;;
19235;SDS011;9752;54.270;12.470;2023-01-26T11:22:53;89.13;;;33.77;;
19235;SDS011;9752;54.270;12.470;2023-01-26T11:28:10;86.23;;;33.70;;
19235;SDS011;9752;54.270;12.470;2023-01-26T11:33:26;134.60;;;44.27;;
19235;SDS011;9752;54.270;12.470;2023-01-26T11:38:34;109.90;;;38.33;;
19235;SDS011;9752;54.270;12.470;2023-01-26T11:43:44;98.90;;;35.43;;
19235;SDS011;9752;54.270;12.470;2023-01-26T11:48:57;94.43;;;34.70;;
19235;SDS011;9752;54.270;12.470;2023-01-26T11:54:13;80.00;;;30.27;;
19235;SDS011;9752;54.270;12.470;2023-01-26T11:59:25;89.40;;;32.13;;
19235;SDS011;9752;54.270;12.470;2023-01-26T12:04:32;89.50;;;31.17;;
19235;SDS011;9752;54.270;12.470;2023-01-26T12:09:46;90.33;;;33.10;;
19235;SDS011;9752;54.270;12.470;2023-01-26T12:14:49;76.27;;;30.33;;
19235;SDS011;9752;54.270;12.470;2023-01-26T12:19:56;53.00;;;22.73;;
19235;SDS011;9752;54.270;12.470;2023-01-26T12:25:12;51.67;;;23.90;;
19235;SDS011;9752;54.270;12.470;2023-01-26T12:30:29;51.40;;;24.50;;
19235;SDS011;9752;54.270;12.470;2023-01-26T12:35:48;81.77;;;30.83;;
19235;SDS011;9752;54.270;12.470;2023-01-26T12:41:00;46.63;;;20.40;;
19235;SDS011;9752;54.270;12.470;2023-01-26T12:46:10;59.50;;;25.00;;
19235;SDS011;9752;54.270;12.470;2023-01-26T12:51:15;53.67;;;23.43;;
19235;SDS011;9752;54.270;12.470;2023-01-26T12:56:23;103.93;;;31.23;;
19235;SDS011;9752;54.270;12.470;2023-01-26T13:01:35;64.90;;;27.80;;
19235;SDS011;9752;54.270;12.470;2023-01-26T13:06:39;132.23;;;38.03;;
19235;SDS011;9752;54.270;12.470;2023-01-26T13:11:44;67.57;;;24.83;;
19235;SDS011;9752;54.270;12.470;2023-01-26T13:16:47;89.60;;;30.23;;
19235;SDS011;9752;54.270;12.470;2023-01-26T13:21:49;61.27;;;24.30;;
19235;SDS011;9752;54.270;12.470;2023-01-26T13:26:52;125.80;;;35.83;;
19235;SDS011;9752;54.270;12.470;2023-01-26T13:31:56;94.00;;;29.90;;
19235;SDS011;9752;54.270;12.470;2023-01-26T13:37:02;105.53;;;32.23;;
19235;SDS011;9752;54.270;12.470;2023-01-26T13:42:15;176.00;;;44.53;;
19235;SDS011;9752;54.270;12.470;2023-01-26T13:47:23;214.20;;;43.67;;
19235;SDS011;9752;54.270;12.470;2023-01-26T13:52:31;145.03;;;37.17;;
19235;SDS011;9752;54.270;12.470;2023-01-26T13:57:34;100.73;;;31.37;;
19235;SDS011;9752;54.270;12.470;2023-01-26T14:02:36;235.33;;;49.97;;
19235;SDS011;9752;54.270;12.470;2023-01-26T14:07:39;199.03;;;45.73;;
19235;SDS011;9752;54.270;12.470;2023-01-26T14:12:44;157.27;;;41.00;;
19235;SDS011;9752;54.270;12.470;2023-01-26T14:17:49;180.10;;;43.20;;
19235;SDS011;9752;54.270;12.470;2023-01-26T14:23:02;218.50;;;48.87;;
19235;SDS011;9752;54.270;12.470;2023-01-26T14:28:15;256.37;;;57.03;;
19235;SDS011;9752;54.270;12.470;2023-01-26T14:33:20;159.97;;;39.60;;
19235;SDS011;9752;54.270;12.470;2023-01-26T14:38:25;75.70;;;26.70;;
19235;SDS011;9752;54.270;12.470;2023-01-26T14:43:30;123.17;;;29.47;;
19235;SDS011;9752;54.270;12.470;2023-01-26T14:48:32;104.93;;;29.70;;
19235;SDS011;9752;54.270;12.470;2023-01-26T14:53:39;222.03;;;43.23;;
19235;SDS011;9752;54.270;12.470;2023-01-26T14:58:50;218.77;;;44.63;;
19235;SDS011;9752;54.270;12.470;2023-01-26T15:03:58;64.17;;;25.87;;
19235;SDS011;9752;54.270;12.470;2023-01-26T15:09:03;63.03;;;25.53;;
19235;SDS011;9752;54.270;12.470;2023-01-26T15:14:17;62.23;;;25.63;;
19235;SDS011;9752;54.270;12.470;2023-01-26T15:19:37;179.77;;;41.83;;
19235;SDS011;9752;54.270;12.470;2023-01-26T15:24:41;98.90;;;32.33;;
19235;SDS011;9752;54.270;12.470;2023-01-26T15:29:45;69.90;;;26.37;;
19235;SDS011;9752;54.270;12.470;2023-01-26T15:34:47;75.30;;;26.83;;
19235;SDS011;9752;54.270;12.470;2023-01-26T15:39:48;124.97;;;36.87;;
19235;SDS011;9752;54.270;12.470;2023-01-26T15:44:52;58.63;;;23.40;;
19235;SDS011;9752;54.270;12.470;2023-01-26T15:49:54;224.20;;;52.87;;
19235;SDS011;9752;54.270;12.470;2023-01-26T15:54:56;71.73;;;24.10;;
19235;SDS011;9752;54.270;12.470;2023-01-26T15:59:59;66.93;;;24.00;;
19235;SDS011;9752;54.270;12.470;2023-01-26T16:05:01;59.57;;;19.50;;
19235;SDS011;9752;54.270;12.470;2023-01-26T16:10:03;38.40;;;18.63;;
19235;SDS011;9752;54.270;12.470;2023-01-26T16:15:17;40.63;;;16.50;;
19235;SDS011;9752;54.270;12.470;2023-01-26T16:20:27;48.73;;;20.57;;
19235;SDS011;9752;54.270;12.470;2023-01-26T16:25:30;51.70;;;20.27;;
19235;SDS011;9752;54.270;12.470;2023-01-26T16:30:34;53.23;;;18.33;;
19235;SDS011;9752;54.270;12.470;2023-01-26T16:35:36;40.37;;;17.60;;
19235;SDS011;9752;54.270;12.470;2023-01-26T16:40:38;50.00;;;19.30;;
19235;SDS011;9752;54.270;12.470;2023-01-26T16:45:42;49.33;;;20.20;;
19235;SDS011;9752;54.270;12.470;2023-01-26T16:50:43;56.23;;;20.13;;
19235;SDS011;9752;54.270;12.470;2023-01-26T16:55:45;46.73;;;20.37;;
19235;SDS011;9752;54.270;12.470;2023-01-26T17:00:48;60.80;;;18.03;;
19235;SDS011;9752;54.270;12.470;2023-01-26T17:05:50;44.87;;;17.40;;
19235;SDS011;9752;54.270;12.470;2023-01-26T17:10:52;39.23;;;17.17;;
19235;SDS011;9752;54.270;12.470;2023-01-26T17:15:56;49.83;;;19.00;;
19235;SDS011;9752;54.270;12.470;2023-01-26T17:21:00;44.00;;;19.37;;
19235;SDS011;9752;54.270;12.470;2023-01-26T17:26:03;43.40;;;15.93;;
19235;SDS011;9752;54.270;12.470;2023-01-26T17:31:09;35.13;;;15.23;;
19235;SDS011;9752;54.270;12.470;2023-01-26T17:36:13;36.70;;;14.37;;
19235;SDS011;9752;54.270;12.470;2023-01-26T17:41:15;31.13;;;15.60;;
19235;SDS011;9752;54.270;12.470;2023-01-26T17:46:19;41.33;;;16.30;;
19235;SDS011;9752;54.270;12.470;2023-01-26T17:51:21;31.50;;;16.37;;
19235;SDS011;9752;54.270;12.470;2023-01-26T17:56:23;39.53;;;16.10;;
19235;SDS011;9752;54.270;12.470;2023-01-26T18:01:26;34.27;;;16.17;;
19235;SDS011;9752;54.270;12.470;2023-01-26T18:06:28;32.13;;;16.67;;
19235;SDS011;9752;54.270;12.470;2023-01-26T18:11:30;30.27;;;13.77;;
19235;SDS011;9752;54.270;12.470;2023-01-26T18:16:33;31.87;;;14.70;;
19235;SDS011;9752;54.270;12.470;2023-01-26T18:21:35;27.97;;;15.37;;
19235;SDS011;9752;54.270;12.470;2023-01-26T18:26:37;25.17;;;15.37;;
19235;SDS011;9752;54.270;12.470;2023-01-26T18:31:40;24.60;;;16.30;;
19235;SDS011;9752;54.270;12.470;2023-01-26T18:36:42;26.77;;;14.20;;
19235;SDS011;9752;54.270;12.470;2023-01-26T18:41:44;28.37;;;15.83;;
19235;SDS011;9752;54.270;12.470;2023-01-26T18:46:47;27.57;;;15.97;;
19235;SDS011;9752;54.270;12.470;2023-01-26T18:51:48;29.00;;;15.90;;
19235;SDS011;9752;54.270;12.470;2023-01-26T18:56:51;26.43;;;14.73;;
19235;SDS011;9752;54.270;12.470;2023-01-26T19:01:54;26.07;;;13.63;;
19235;SDS011;9752;54.270;12.470;2023-01-26T19:06:56;24.97;;;14.07;;
19235;SDS011;9752;54.270;12.470;2023-01-26T19:11:57;27.53;;;16.47;;
19235;SDS011;9752;54.270;12.470;2023-01-26T19:17:02;29.83;;;16.77;;
19235;SDS011;9752;54.270;12.470;2023-01-26T19:22:04;31.30;;;15.73;;
19235;SDS011;9752;54.270;12.470;2023-01-26T19:27:06;27.50;;;14.50;;
19235;SDS011;9752;54.270;12.470;2023-01-26T19:32:09;23.37;;;11.70;;
19235;SDS011;9752;54.270;12.470;2023-01-26T19:37:10;20.17;;;12.10;;
19235;SDS011;9752;54.270;12.470;2023-01-26T19:42:12;20.23;;;12.27;;
19235;SDS011;9752;54.270;12.470;2023-01-26T19:47:15;21.97;;;11.63;;
19235;SDS011;9752;54.270;12.470;2023-01-26T19:52:17;15.30;;;9.13;;
19235;SDS011;9752;54.270;12.470;2023-01-26T19:57:19;23.23;;;12.00;;
19235;SDS011;9752;54.270;12.470;2023-01-26T20:02:23;24.13;;;12.17;;
19235;SDS011;9752;54.270;12.470;2023-01-26T20:07:25;30.10;;;15.07;;
19235;SDS011;9752;54.270;12.470;2023-01-26T20:12:28;26.33;;;13.40;;
19235;SDS011;9752;54.270;12.470;2023-01-26T20:17:31;31.00;;;15.03;;
19235;SDS011;9752;54.270;12.470;2023-01-26T20:22:33;28.27;;;14.77;;
19235;SDS011;9752;54.270;12.470;2023-01-26T20:27:39;25.03;;;14.53;;
19235;SDS011;9752;54.270;12.470;2023-01-26T20:32:42;27.67;;;14.90;;
19235;SDS011;9752;54.270;12.470;2023-01-26T20:37:44;26.93;;;14.20;;
19235;SDS011;9752;54.270;12.470;2023-01-26T20:42:46;16.80;;;10.30;;
19235;SDS011;9752;54.270;12.470;2023-01-26T20:47:49;15.83;;;9.80;;
19235;SDS011;9752;54.270;12.470;2023-01-26T20:52:52;15.43;;;9.67;;
19235;SDS011;9752;54.270;12.470;2023-01-26T20:57:54;13.53;;;8.83;;
19235;SDS011;9752;54.270;12.470;2023-01-26T21:02:57;11.87;;;8.33;;
19235;SDS011;9752;54.270;12.470;2023-01-26T21:07:58;13.97;;;8.83;;
19235;SDS011;9752;54.270;12.470;2023-01-26T21:13:00;13.53;;;9.10;;
19235;SDS011;9752;54.270;12.470;2023-01-26T21:18:03;15.30;;;9.20;;
19235;SDS011;9752;54.270;12.470;2023-01-26T21:23:05;15.17;;;10.50;;
19235;SDS011;9752;54.270;12.470;2023-01-26T21:28:07;20.20;;;11.80;;
19235;SDS011;9752;54.270;12.470;2023-01-26T21:33:11;20.30;;;11.43;;
19235;SDS011;9752;54.270;12.470;2023-01-26T21:38:12;21.60;;;10.93;;
19235;SDS011;9752;54.270;12.470;2023-01-26T21:43:14;15.10;;;10.13;;
19235;SDS011;9752;54.270;12.470;2023-01-26T21:48:17;12.77;;;8.20;;
19235;SDS011;9752;54.270;12.470;2023-01-26T21:53:30;12.07;;;7.37;;
19235;SDS011;9752;54.270;12.470;2023-01-26T21:58:32;8.87;;;5.63;;
19235;SDS011;9752;54.270;12.470;2023-01-26T22:03:54;7.00;;;6.27;;
19235;SDS011;9752;54.270;12.470;2023-01-26T22:08:56;5.63;;;5.23;;
19235;SDS011;9752;54.270;12.470;2023-01-26T22:13:58;6.17;;;5.77;;
19235;SDS011;9752;54.270;12.470;2023-01-26T22:19:01;7.47;;;6.63;;
19235;SDS011;9752;54.270;12.470;2023-01-26T22:24:03;6.47;;;5.87;;
19235;SDS011;9752;54.270;12.470;2023-01-26T22:29:06;6.33;;;5.73;;
19235;SDS011;9752;54.270;12.470;2023-01-26T22:34:09;6.30;;;5.70;;
19235;SDS011;9752;54.270;12.470;2023-01-26T22:39:11;8.13;;;6.43;;
19235;SDS011;9752;54.270;12.470;2023-01-26T22:44:13;5.57;;;5.10;;
19235;SDS011;9752;54.270;12.470;2023-01-26T22:49:16;7.53;;;4.80;;
19235;SDS011;9752;54.270;12.470;2023-01-26T22:54:18;7.07;;;4.43;;
19235;SDS011;9752;54.270;12.470;2023-01-26T22:59:19;6.60;;;5.10;;
19235;SDS011;9752;54.270;12.470;2023-01-26T23:04:23;5.93;;;4.90;;
19235;SDS011;9752;54.270;12.470;2023-01-26T23:09:24;11.13;;;5.33;;
19235;SDS011;9752;54.270;12.470;2023-01-26T23:14:32;9.03;;;5.53;;
19235;SDS011;9752;54.270;12.470;2023-01-26T23:19:36;5.13;;;4.63;;
19235;SDS011;9752;54.270;12.470;2023-01-26T23:24:37;5.00;;;4.57;;
19235;SDS011;9752;54.270;12.470;2023-01-26T23:29:39;6.40;;;5.80;;
19235;SDS011;9752;54.270;12.470;2023-01-26T23:34:42;7.10;;;5.07;;
19235;SDS011;9752;54.270;12.470;2023-01-26T23:39:44;9.83;;;5.83;;
19235;SDS011;9752;54.270;12.470;2023-01-26T23:44:45;9.77;;;5.87;;
19235;SDS011;9752;54.270;12.470;2023-01-26T23:49:48;6.07;;;5.43;;
19235;SDS011;9752;54.270;12.470;2023-01-26T23:54:50;6.73;;;5.47;;
19235;SDS011;9752;54.270;12.470;2023-01-26T23:59:52;7.37;;;4.70;;
